Time,TemperatureF,DewpointF,PressureIn,WindDirection,WindDirectionDegrees,WindSpeedMPH,WindSpeedGustMPH,Humidity,HourlyPrecipIn,Conditions,Clouds,dailyrainin,SoftwareType,DateUTC
2013-01-24 00:02:00,4.0,-4.0,30.45,North,350,11.0,14.0,67,0.00,,,0.00,,2013-01-24 06:02:00,
2013-01-24 00:12:00,4.0,-4.0,30.45,North,350,11.0,14.0,67,0.00,,,0.00,,2013-01-24 06:12:00,
2013-01-24 00:22:00,3.0,-5.0,30.47,NNW,333,5.0,14.0,68,0.00,,,0.00,,2013-01-24 06:22:00,
2013-01-24 00:32:00,3.0,-5.0,30.48,NNW,341,6.0,14.0,69,0.00,,,0.00,,2013-01-24 06:32:00,
2013-01-24 00:42:00,3.0,-5.0,30.48,NNW,341,6.0,14.0,69,0.00,,,0.00,,2013-01-24 06:42:00,
2013-01-24 00:52:00,2.0,-6.0,30.48,NNW,340,13.0,14.0,69,0.00,,,0.00,,2013-01-24 06:52:00,
2013-01-24 01:02:00,2.0,-6.0,30.49,NW,321,6.0,16.0,69,0.00,,,0.00,,2013-01-24 07:02:00,
2013-01-24 01:12:00,2.0,-6.0,30.49,NW,321,6.0,16.0,69,0.00,,,0.00,,2013-01-24 07:12:00,
2013-01-24 01:22:00,2.0,-6.0,30.50,NNW,346,8.0,15.0,69,0.00,,,0.00,,2013-01-24 07:22:00,
2013-01-24 01:33:00,2.0,-6.0,30.51,NNW,336,5.0,13.0,70,0.00,,,0.00,,2013-01-24 07:33:00,
2013-01-24 01:42:00,2.0,-6.0,30.51,NNW,336,5.0,13.0,70,0.00,,,0.00,,2013-01-24 07:42:00,
2013-01-24 01:53:00,1.0,-6.0,30.52,NW,321,10.0,15.0,71,0.00,,,0.00,,2013-01-24 07:53:00,
2013-01-24 02:02:00,1.0,-6.0,30.53,NW,305,9.0,14.0,71,0.00,,,0.00,,2013-01-24 08:02:00,
2013-01-24 02:12:00,1.0,-6.0,30.53,NW,305,9.0,14.0,71,0.00,,,0.00,,2013-01-24 08:12:00,
2013-01-24 02:22:00,1.0,-6.0,30.53,NW,311,5.0,12.0,72,0.00,,,0.00,,2013-01-24 08:22:00,
2013-01-24 02:33:00,1.0,-6.0,30.54,NW,321,5.0,15.0,72,0.00,,,0.00,,2013-01-24 08:33:00,
2013-01-24 02:42:00,1.0,-6.0,30.54,NW,321,5.0,15.0,72,0.00,,,0.00,,2013-01-24 08:42:00,
2013-01-24 02:53:00,0.0,-7.0,30.55,WNW,289,3.0,15.0,72,0.00,,,0.00,,2013-01-24 08:53:00,
2013-01-24 03:02:00,0.0,-7.0,30.56,West,277,4.0,8.0,73,0.00,,,0.00,,2013-01-24 09:02:00,
2013-01-24 03:12:00,0.0,-7.0,30.56,West,277,4.0,8.0,73,0.00,,,0.00,,2013-01-24 09:12:00,
2013-01-24 03:23:00,0.0,-7.0,30.56,WNW,292,7.0,8.0,73,0.00,,,0.00,,2013-01-24 09:23:00,
2013-01-24 03:33:00,0.0,-6.0,30.57,WNW,287,3.0,8.0,74,0.00,,,0.00,,2013-01-24 09:33:00,
2013-01-24 03:43:00,0.0,-6.0,30.57,WNW,287,3.0,8.0,74,0.00,,,0.00,,2013-01-24 09:43:00,
2013-01-24 03:52:00,0.0,-6.0,30.58,WNW,283,6.0,9.0,74,0.00,,,0.00,,2013-01-24 09:52:00,
2013-01-24 04:02:00,0.0,-6.0,30.59,NW,308,4.0,10.0,74,0.00,,,0.00,,2013-01-24 10:02:00,
2013-01-24 04:12:00,0.0,-6.0,30.59,NW,308,4.0,10.0,74,0.00,,,0.00,,2013-01-24 10:12:00,
2013-01-24 04:22:00,0.0,-6.0,30.59,NW,317,4.0,12.0,74,0.00,,,0.00,,2013-01-24 10:22:00,
2013-01-24 04:33:00,-1.0,-7.0,30.60,NW,304,5.0,9.0,75,0.00,,,0.00,,2013-01-24 10:33:00,
2013-01-24 04:43:00,-1.0,-7.0,30.60,NW,304,5.0,9.0,75,0.00,,,0.00,,2013-01-24 10:43:00,
2013-01-24 04:53:00,-1.0,-7.0,30.60,WNW,284,7.0,11.0,75,0.00,,,0.00,,2013-01-24 10:53:00,
2013-01-24 05:02:00,-1.0,-7.0,30.62,West,263,4.0,9.0,75,0.00,,,0.00,,2013-01-24 11:02:00,
2013-01-24 05:12:00,-1.0,-7.0,30.62,West,263,4.0,9.0,75,0.00,,,0.00,,2013-01-24 11:12:00,
2013-01-24 05:22:00,-1.0,-7.0,30.63,WNW,302,2.0,6.0,76,0.00,,,0.00,,2013-01-24 11:22:00,
2013-01-24 05:33:00,-1.0,-7.0,30.63,NW,311,7.0,9.0,76,0.00,,,0.00,,2013-01-24 11:33:00,
2013-01-24 05:43:00,-1.0,-7.0,30.63,NW,311,7.0,9.0,76,0.00,,,0.00,,2013-01-24 11:43:00,
2013-01-24 05:52:00,-1.0,-7.0,30.63,NW,309,5.0,9.0,75,0.00,,,0.00,,2013-01-24 11:52:00,
2013-01-24 06:03:00,-1.0,-7.0,30.63,WNW,297,4.0,10.0,75,0.00,,,0.00,,2013-01-24 12:03:00,
2013-01-24 06:12:00,-1.0,-7.0,30.63,WNW,297,4.0,10.0,75,0.00,,,0.00,,2013-01-24 12:12:00,
2013-01-24 06:22:00,-1.0,-7.0,30.63,WNW,302,2.0,9.0,75,0.00,,,0.00,,2013-01-24 12:22:00,
2013-01-24 06:33:00,-2.0,-8.0,30.64,WNW,296,5.0,11.0,76,0.00,,,0.00,,2013-01-24 12:33:00,
2013-01-24 06:42:00,-2.0,-8.0,30.64,WNW,296,5.0,11.0,76,0.00,,,0.00,,2013-01-24 12:42:00,
2013-01-24 06:53:00,-2.0,-8.0,30.65,WNW,295,2.0,6.0,76,0.00,,,0.00,,2013-01-24 12:53:00,
2013-01-24 07:03:00,-2.0,-8.0,30.65,WNW,292,7.0,7.0,76,0.00,,,0.00,,2013-01-24 13:03:00,
2013-01-24 07:13:00,-2.0,-8.0,30.65,WNW,292,7.0,7.0,76,0.00,,,0.00,,2013-01-24 13:13:00,
2013-01-24 07:23:00,-2.0,-8.0,30.66,NW,308,4.0,8.0,76,0.00,,,0.00,,2013-01-24 13:23:00,
2013-01-24 07:33:00,-2.0,-7.0,30.66,WNW,283,5.0,6.0,77,0.00,,,0.00,,2013-01-24 13:33:00,
2013-01-24 07:42:00,-2.0,-7.0,30.66,WNW,283,5.0,6.0,77,0.00,,,0.00,,2013-01-24 13:42:00,
2013-01-24 07:52:00,-2.0,-7.0,30.66,WNW,286,2.0,8.0,77,0.00,,,0.00,,2013-01-24 13:52:00,
2013-01-24 08:02:00,-2.0,-7.0,30.67,NW,311,3.0,8.0,77,0.00,,,0.00,,2013-01-24 14:02:00,
2013-01-24 08:12:00,-2.0,-7.0,30.67,NW,311,3.0,8.0,77,0.00,,,0.00,,2013-01-24 14:12:00,
2013-01-24 08:22:00,-1.0,-7.0,30.68,WNW,292,5.0,9.0,76,0.00,,,0.00,,2013-01-24 14:22:00,
2013-01-24 08:33:00,-1.0,-7.0,30.68,NW,306,3.0,5.0,76,0.00,,,0.00,,2013-01-24 14:33:00,
2013-01-24 08:43:00,-1.0,-7.0,30.68,NW,306,3.0,5.0,76,0.00,,,0.00,,2013-01-24 14:43:00,
2013-01-24 08:54:00,-1.0,-7.0,30.68,NW,325,1.0,5.0,76,0.00,,,0.00,,2013-01-24 14:54:00,
2013-01-24 09:03:00,-1.0,-7.0,30.69,NW,306,5.0,6.0,76,0.00,,,0.00,,2013-01-24 15:03:00,
2013-01-24 09:12:00,-1.0,-7.0,30.69,NW,306,5.0,6.0,76,0.00,,,0.00,,2013-01-24 15:12:00,
2013-01-24 09:22:00,0.0,-6.0,30.69,NNW,333,4.0,8.0,75,0.00,,,0.00,,2013-01-24 15:22:00,
2013-01-24 09:33:00,0.0,-6.0,30.69,NNW,333,4.0,8.0,75,0.00,,,0.00,,2013-01-24 15:33:00,
2013-01-24 09:43:00,1.0,-5.0,30.68,North,350,1.0,7.0,74,0.00,,,0.00,,2013-01-24 15:43:00,
2013-01-24 09:53:00,2.0,-5.0,30.68,NNW,339,2.0,5.0,72,0.00,,,0.00,,2013-01-24 15:53:00,
2013-01-24 10:03:00,3.0,-4.0,30.68,NNE,14,0.0,4.0,71,0.00,,,0.00,,2013-01-24 16:03:00,
2013-01-24 10:12:00,3.0,-4.0,30.68,NNE,14,0.0,4.0,71,0.00,,,0.00,,2013-01-24 16:12:00,
2013-01-24 10:22:00,3.0,-5.0,30.69,North,360,3.0,6.0,70,0.00,,,0.00,,2013-01-24 16:22:00,
2013-01-24 10:33:00,4.0,-4.0,30.68,NNW,330,3.0,5.0,68,0.00,,,0.00,,2013-01-24 16:33:00,
2013-01-24 10:42:00,4.0,-4.0,30.68,NNW,330,3.0,5.0,68,0.00,,,0.00,,2013-01-24 16:42:00,
2013-01-24 11:02:00,5.0,-3.0,30.68,NNW,332,0.0,6.0,69,0.00,,,0.00,,2013-01-24 17:02:00,
2013-01-24 11:12:00,5.0,-3.0,30.68,NNW,332,0.0,6.0,69,0.00,,,0.00,,2013-01-24 17:12:00,
2013-01-24 11:21:00,5.0,-3.0,30.64,NNE,27,3.0,7.0,68,0.00,,,0.00,,2013-01-24 17:21:00,
2013-01-24 11:32:00,5.0,-3.0,30.64,NE,38,0.0,6.0,69,0.00,,,0.00,,2013-01-24 17:32:00,
2013-01-24 11:42:00,5.0,-3.0,30.64,NE,38,0.0,6.0,69,0.00,,,0.00,,2013-01-24 17:42:00,
2013-01-24 11:52:00,6.0,-2.0,30.63,NE,38,2.0,3.0,69,0.00,,,0.00,,2013-01-24 17:52:00,
2013-01-24 12:02:00,6.0,-3.0,30.63,NE,40,1.0,6.0,67,0.00,,,0.00,,2013-01-24 18:02:00,
2013-01-24 12:12:00,7.0,-1.0,30.62,NE,46,2.0,5.0,68,0.00,,,0.00,,2013-01-24 18:12:00,
2013-01-24 12:22:00,7.0,-1.0,30.62,NE,46,2.0,5.0,68,0.00,,,0.00,,2013-01-24 18:22:00,
2013-01-24 12:32:00,7.0,-1.0,30.61,NE,45,0.0,6.0,68,0.00,,,0.00,,2013-01-24 18:32:00,
2013-01-24 12:42:00,7.0,-1.0,30.61,NE,45,0.0,6.0,68,0.00,,,0.00,,2013-01-24 18:42:00,
2013-01-24 12:53:00,7.0,-1.0,30.60,NE,53,1.0,6.0,68,0.00,,,0.00,,2013-01-24 18:53:00,
2013-01-24 13:02:00,8.0,2.0,30.60,NNE,12,1.0,5.0,76,0.00,,,0.00,,2013-01-24 19:02:00,
2013-01-24 13:12:00,8.0,2.0,30.60,NNE,12,1.0,5.0,76,0.00,,,0.00,,2013-01-24 19:12:00,
2013-01-24 13:22:00,9.0,0.0,30.59,NE,35,0.0,4.0,66,0.00,,,0.00,,2013-01-24 19:22:00,
2013-01-24 13:33:00,9.0,0.0,30.59,NE,34,1.0,4.0,66,0.00,,,0.00,,2013-01-24 19:33:00,
2013-01-24 13:42:00,9.0,0.0,30.59,NE,34,1.0,4.0,66,0.00,,,0.00,,2013-01-24 19:42:00,
2013-01-24 13:52:00,9.0,-1.0,30.58,NE,40,0.0,5.0,64,0.00,,,0.00,,2013-01-24 19:52:00,
2013-01-24 14:02:00,9.0,0.0,30.57,NNE,15,3.0,5.0,65,0.00,,,0.00,,2013-01-24 20:02:00,
2013-01-24 14:11:00,9.0,0.0,30.57,NNE,15,3.0,5.0,65,0.00,,,0.00,,2013-01-24 20:11:00,
2013-01-24 14:22:00,10.0,1.0,30.57,NE,38,2.0,5.0,65,0.00,,,0.00,,2013-01-24 20:22:00,
2013-01-24 14:32:00,10.0,1.0,30.56,ENE,70,2.0,4.0,65,0.00,,,0.00,,2013-01-24 20:32:00,
2013-01-24 14:42:00,10.0,1.0,30.56,ENE,70,2.0,4.0,65,0.00,,,0.00,,2013-01-24 20:42:00,
2013-01-24 14:52:00,10.0,1.0,30.56,NNE,19,0.0,4.0,65,0.00,,,0.00,,2013-01-24 20:52:00,
2013-01-24 15:02:00,10.0,1.0,30.56,ESE,104,0.0,3.0,65,0.00,,,0.00,,2013-01-24 21:02:00,
2013-01-24 15:12:00,10.0,1.0,30.56,ESE,104,0.0,3.0,65,0.00,,,0.00,,2013-01-24 21:12:00,
2013-01-24 15:22:00,10.0,1.0,30.56,ESE,104,0.0,2.0,65,0.00,,,0.00,,2013-01-24 21:22:00,
2013-01-24 15:33:00,10.0,1.0,30.55,ESE,104,2.0,4.0,66,0.00,,,0.00,,2013-01-24 21:33:00,
2013-01-24 15:43:00,10.0,1.0,30.55,ESE,104,2.0,4.0,66,0.00,,,0.00,,2013-01-24 21:43:00,
2013-01-24 15:52:00,10.0,1.0,30.55,ESE,104,1.0,2.0,66,0.00,,,0.00,,2013-01-24 21:52:00,
2013-01-24 16:02:00,10.0,1.0,30.54,East,86,0.0,5.0,67,0.00,,,0.00,,2013-01-24 22:02:00,
2013-01-24 16:12:00,10.0,1.0,30.54,East,86,0.0,5.0,67,0.00,,,0.00,,2013-01-24 22:12:00,
2013-01-24 16:22:00,10.0,1.0,30.54,East,86,0.0,3.0,67,0.00,,,0.00,,2013-01-24 22:22:00,
2013-01-24 16:32:00,10.0,1.0,30.53,East,86,1.0,3.0,67,0.00,,,0.00,,2013-01-24 22:32:00,
2013-01-24 16:42:00,10.0,1.0,30.53,East,86,1.0,3.0,67,0.00,,,0.00,,2013-01-24 22:42:00,
2013-01-24 16:52:00,10.0,1.0,30.53,East,86,0.0,2.0,66,0.00,,,0.00,,2013-01-24 22:52:00,
2013-01-24 17:02:00,10.0,2.0,30.53,East,86,1.0,2.0,68,0.00,,,0.00,,2013-01-24 23:02:00,
2013-01-24 17:12:00,10.0,2.0,30.53,East,86,1.0,2.0,68,0.00,,,0.00,,2013-01-24 23:12:00,
2013-01-24 17:22:00,10.0,2.0,30.52,East,86,0.0,2.0,69,0.00,,,0.00,,2013-01-24 23:22:00,
2013-01-24 17:32:00,10.0,2.0,30.52,East,86,0.0,2.0,70,0.00,,,0.00,,2013-01-24 23:32:00,
2013-01-24 17:42:00,10.0,2.0,30.52,East,86,0.0,2.0,70,0.00,,,0.00,,2013-01-24 23:42:00,
2013-01-24 17:52:00,10.0,2.0,30.51,East,86,0.0,2.0,70,0.00,,,0.00,,2013-01-24 23:52:00,
2013-01-24 18:02:00,11.0,3.0,30.51,East,86,1.0,2.0,70,0.00,,,0.00,,2013-01-25 00:02:00,
2013-01-24 18:12:00,11.0,3.0,30.51,East,86,1.0,2.0,70,0.00,,,0.00,,2013-01-25 00:12:00,
2013-01-24 18:22:00,11.0,3.0,30.49,ESE,118,0.0,2.0,69,0.00,,,0.00,,2013-01-25 00:22:00,
2013-01-24 18:32:00,11.0,3.0,30.48,East,96,0.0,5.0,70,0.00,,,0.00,,2013-01-25 00:32:00,
2013-01-24 18:42:00,11.0,3.0,30.48,East,96,0.0,5.0,70,0.00,,,0.00,,2013-01-25 00:42:00,
2013-01-24 18:52:00,11.0,3.0,30.46,ESE,119,2.0,5.0,70,0.00,,,0.00,,2013-01-25 00:52:00,
2013-01-24 19:01:00,11.0,3.0,30.45,SE,138,2.0,5.0,70,0.00,,,0.00,,2013-01-25 01:01:00,
2013-01-24 19:12:00,11.0,3.0,30.45,SE,138,2.0,5.0,70,0.00,,,0.00,,2013-01-25 01:12:00,
2013-01-24 19:21:00,11.0,3.0,30.46,ESE,109,5.0,8.0,71,0.00,,,0.00,,2013-01-25 01:21:00,
2013-01-24 19:32:00,11.0,3.0,30.45,ESE,119,2.0,8.0,71,0.00,,,0.00,,2013-01-25 01:32:00,
2013-01-24 19:42:00,11.0,3.0,30.45,ESE,119,2.0,8.0,71,0.00,,,0.00,,2013-01-25 01:42:00,
2013-01-24 19:52:00,12.0,5.0,30.43,SE,131,1.0,5.0,72,0.00,,,0.00,,2013-01-25 01:52:00,
2013-01-24 20:02:00,12.0,5.0,30.44,ESE,121,0.0,5.0,72,0.00,,,0.00,,2013-01-25 02:02:00,
2013-01-24 20:11:00,12.0,5.0,30.44,ESE,121,0.0,5.0,72,0.00,,,0.00,,2013-01-25 02:11:00,
2013-01-24 20:22:00,12.0,4.0,30.43,ESE,119,2.0,7.0,71,0.00,,,0.00,,2013-01-25 02:22:00,
2013-01-24 20:32:00,12.0,4.0,30.44,ESE,119,0.0,4.0,71,0.00,,,0.00,,2013-01-25 02:32:00,
2013-01-24 20:42:00,12.0,4.0,30.44,ESE,119,0.0,4.0,71,0.00,,,0.00,,2013-01-25 02:42:00,
2013-01-24 20:52:00,12.0,4.0,30.44,SE,140,2.0,4.0,71,0.00,,,0.00,,2013-01-25 02:52:00,
2013-01-24 21:02:00,12.0,4.0,30.43,SE,137,1.0,3.0,71,0.00,,,0.00,,2013-01-25 03:02:00,
2013-01-24 21:12:00,12.0,4.0,30.41,ESE,122,4.0,8.0,70,0.00,,,0.00,,2013-01-25 03:12:00,
2013-01-24 21:22:00,12.0,4.0,30.41,ESE,122,4.0,8.0,70,0.00,,,0.00,,2013-01-25 03:22:00,
2013-01-24 21:33:00,12.0,4.0,30.39,SE,126,4.0,10.0,71,0.00,,,0.00,,2013-01-25 03:33:00,
2013-01-24 21:42:00,12.0,4.0,30.39,SE,126,4.0,10.0,71,0.00,,,0.00,,2013-01-25 03:42:00,
2013-01-24 21:52:00,13.0,5.0,30.38,ESE,116,4.0,6.0,71,0.00,,,0.00,,2013-01-25 03:52:00,
2013-01-24 22:02:00,13.0,6.0,30.38,SE,130,1.0,7.0,72,0.00,,,0.00,,2013-01-25 04:02:00,
2013-01-24 22:12:00,13.0,6.0,30.38,SE,130,1.0,7.0,72,0.00,,,0.00,,2013-01-25 04:12:00,
2013-01-24 22:22:00,13.0,5.0,30.39,SE,125,1.0,7.0,71,0.00,,,0.00,,2013-01-25 04:22:00,
2013-01-24 22:32:00,13.0,6.0,30.39,ESE,106,0.0,3.0,72,0.00,,,0.00,,2013-01-25 04:32:00,
2013-01-24 22:41:00,13.0,6.0,30.39,ESE,106,0.0,3.0,72,0.00,,,0.00,,2013-01-25 04:41:00,
2013-01-24 22:52:00,14.0,7.0,30.37,ESE,113,1.0,4.0,73,0.00,,,0.00,,2013-01-25 04:52:00,
2013-01-24 23:03:00,14.0,7.0,30.37,ESE,113,1.0,4.0,73,0.00,,,0.00,,2013-01-25 05:03:00,
2013-01-24 23:12:00,14.0,7.0,30.37,SE,126,1.0,4.0,73,0.00,,,0.00,,2013-01-25 05:12:00,
2013-01-24 23:22:00,14.0,7.0,30.37,SE,126,1.0,4.0,73,0.00,,,0.00,,2013-01-25 05:22:00,
2013-01-24 23:32:00,14.0,7.0,30.37,ESE,123,3.0,5.0,73,0.00,,,0.00,,2013-01-25 05:32:00,
2013-01-24 23:43:00,14.0,7.0,30.37,ESE,123,3.0,5.0,73,0.00,,,0.00,,2013-01-25 05:43:00,
2013-01-24 23:52:00,14.0,7.0,30.35,SE,124,8.0,8.0,74,0.00,,,0.00,,2013-01-25 05:52:00,